createdAt,value
2018-07-22T06:00:27.285Z,6.10
2018-07-22T06:01:27.281Z,13.00
2018-07-22T06:02:27.216Z,13.00
2018-07-22T06:03:27.204Z,13.40
2018-07-22T06:04:27.203Z,13.30
2018-07-22T06:05:27.185Z,13.30
2018-07-22T06:06:27.218Z,12.70
2018-07-22T06:07:27.168Z,12.90
2018-07-22T06:08:27.151Z,12.80
2018-07-22T06:09:27.140Z,12.50
2018-07-22T06:10:27.134Z,12.90
2018-07-22T06:11:27.161Z,12.30
2018-07-22T06:12:27.107Z,12.60
2018-07-22T06:13:27.095Z,12.20
2018-07-22T06:14:27.084Z,12.30
2018-07-22T06:15:27.073Z,12.20
2018-07-22T06:16:27.113Z,12.20
2018-07-22T06:17:27.054Z,11.80
2018-07-22T06:18:27.046Z,12.10
2018-07-22T06:19:27.031Z,11.80
2018-07-22T06:20:27.024Z,12.30
2018-07-22T06:21:27.051Z,12.80
2018-07-22T06:22:26.998Z,13.20
2018-07-22T06:23:27.047Z,13.30
2018-07-22T06:24:26.976Z,13.90
2018-07-22T06:25:26.972Z,13.50
2018-07-22T06:26:26.998Z,13.40
2018-07-22T06:27:26.942Z,13.80
2018-07-22T06:28:26.932Z,13.40
2018-07-22T06:29:26.918Z,13.20
2018-07-22T06:30:26.913Z,13.60
2018-07-22T06:31:26.942Z,13.90
2018-07-22T06:32:26.935Z,13.10
2018-07-22T06:33:26.877Z,12.80
2018-07-22T06:34:26.882Z,12.90
2018-07-22T06:35:26.853Z,13.30
2018-07-22T06:36:26.890Z,12.30
2018-07-22T06:37:26.834Z,12.60
2018-07-22T06:38:26.823Z,12.60
2018-07-22T06:39:26.811Z,13.10
2018-07-22T06:40:26.800Z,13.00
2018-07-22T06:41:26.790Z,13.90
2018-07-22T06:42:26.843Z,14.70
2018-07-22T06:43:26.766Z,14.80
2018-07-22T06:44:26.753Z,15.70
2018-07-22T06:45:26.747Z,14.30
2018-07-22T06:46:26.737Z,12.90
2018-07-22T06:47:26.776Z,13.00
2018-07-22T06:48:26.713Z,11.60
2018-07-22T06:49:26.701Z,11.10
2018-07-22T06:50:26.771Z,10.70
2018-07-22T06:51:26.684Z,10.90
2018-07-22T06:52:26.712Z,10.90
2018-07-22T06:53:26.720Z,11.50
2018-07-22T06:54:26.808Z,11.60
2018-07-22T06:55:26.744Z,11.50
2018-07-22T06:56:26.633Z,10.90
2018-07-22T06:57:26.658Z,10.20
2018-07-22T06:58:26.647Z,10.40
2018-07-22T06:59:26.594Z,10.30
2018-07-22T07:00:26.586Z,10.80
2018-07-22T07:01:26.569Z,10.60
2018-07-22T07:02:26.604Z,10.30
2018-07-22T07:03:26.553Z,9.70
2018-07-22T07:04:26.539Z,10.30
2018-07-22T07:05:26.652Z,10.10
2018-07-22T07:06:26.519Z,11.40
2018-07-22T07:07:26.554Z,11.70
2018-07-22T07:08:26.525Z,12.20
2018-07-22T07:09:26.492Z,11.80
2018-07-22T07:10:26.473Z,11.10
2018-07-22T07:11:26.465Z,10.90
2018-07-22T07:12:26.497Z,10.60
2018-07-22T07:13:26.440Z,10.40
2018-07-22T07:14:26.428Z,11.20
2018-07-22T07:15:26.419Z,11.20
2018-07-22T07:16:26.409Z,11.40
2018-07-22T07:17:26.453Z,11.20
2018-07-22T07:18:26.386Z,11.70
2018-07-22T07:19:26.383Z,10.90
2018-07-22T07:20:26.363Z,12.00
2018-07-22T07:21:26.353Z,11.60
2018-07-22T07:22:26.397Z,11.60
2018-07-22T07:23:26.331Z,11.50
2018-07-22T07:24:26.321Z,11.80
2018-07-22T07:25:26.311Z,11.20
2018-07-22T07:26:26.394Z,11.20
2018-07-22T07:27:26.338Z,10.60
2018-07-22T07:28:26.284Z,11.90
2018-07-22T07:29:26.267Z,11.50
2018-07-22T07:30:26.268Z,11.40
2018-07-22T07:31:26.246Z,11.80
2018-07-22T07:32:26.284Z,11.10
2018-07-22T07:33:26.228Z,11.80
2018-07-22T07:34:26.250Z,11.50
2018-07-22T07:35:26.202Z,11.50
2018-07-22T07:36:26.190Z,11.30
2018-07-22T07:37:26.226Z,11.50
2018-07-22T07:38:26.171Z,11.80
2018-07-22T07:39:26.180Z,11.90
2018-07-22T07:40:26.147Z,12.80
2018-07-22T07:41:26.137Z,13.20
2018-07-22T07:42:26.246Z,15.70
2018-07-22T07:43:26.115Z,16.20
2018-07-22T07:45:18.119Z,16.20
2018-07-22T07:46:18.084Z,17.60
2018-07-22T07:47:18.390Z,17.40
2018-07-22T07:48:18.063Z,17.40
2018-07-22T07:49:18.056Z,17.30
2018-07-22T07:50:18.048Z,17.80
2018-07-22T07:51:18.079Z,17.60
2018-07-22T07:52:18.066Z,17.00
2018-07-22T07:53:18.027Z,16.90
2018-07-22T07:54:17.997Z,16.70
2018-07-22T07:55:17.985Z,17.10
2018-07-22T07:56:17.974Z,18.10
2018-07-22T07:57:18.017Z,18.10
2018-07-22T07:58:17.955Z,16.90
2018-07-22T07:59:17.942Z,18.10
2018-07-22T08:00:17.929Z,17.60
2018-07-22T08:01:17.917Z,17.40
2018-07-22T08:02:17.954Z,16.80
2018-07-22T08:03:17.895Z,17.10
2018-07-22T08:04:17.885Z,17.70
2018-07-22T08:05:17.871Z,16.10
2018-07-22T08:06:17.866Z,16.30
2018-07-22T08:07:17.901Z,14.00
2018-07-22T08:08:17.837Z,14.30
2018-07-22T08:09:17.825Z,14.80
2018-07-22T08:10:17.823Z,15.70
2018-07-22T08:11:17.817Z,15.10
2018-07-22T08:12:17.844Z,14.50
2018-07-22T08:13:17.807Z,14.60
2018-07-22T08:14:17.776Z,14.80
2018-07-22T08:15:17.806Z,14.80
2018-07-22T08:16:17.757Z,15.20
2018-07-22T08:17:17.783Z,14.30
2018-07-22T08:18:17.727Z,13.30
2018-07-22T08:19:17.731Z,12.90
2018-07-22T08:20:17.709Z,12.70
2018-07-22T08:21:17.694Z,12.10
2018-07-22T08:22:17.844Z,11.70
2018-07-22T08:23:17.676Z,11.80
2018-07-22T08:24:17.659Z,11.90
2018-07-22T08:25:17.646Z,13.20
2018-07-22T08:26:17.635Z,13.50
2018-07-22T08:27:17.696Z,13.20
2018-07-22T08:28:17.620Z,13.00
2018-07-22T08:29:17.600Z,13.80
2018-07-22T08:30:17.591Z,12.80
2018-07-22T08:31:17.578Z,12.80
2018-07-22T08:32:17.619Z,12.80
2018-07-22T08:33:17.558Z,12.60
2018-07-22T08:34:17.547Z,12.80
2018-07-22T08:35:17.543Z,13.30
2018-07-22T08:36:17.524Z,14.50
2018-07-22T08:37:17.510Z,14.20
2018-07-22T08:38:17.547Z,14.30
2018-07-22T08:39:17.488Z,13.60
2018-07-22T08:40:17.478Z,13.80
2018-07-22T08:41:17.516Z,12.70
2018-07-22T08:42:17.458Z,13.20
2018-07-22T08:43:17.490Z,14.70
2018-07-22T08:44:17.432Z,14.80
2018-07-22T08:45:17.422Z,14.80
2018-07-22T08:46:17.411Z,14.30
2018-07-22T08:47:17.401Z,13.60
2018-07-22T08:48:17.436Z,14.70
2018-07-22T08:49:17.374Z,14.60
2018-07-22T08:50:17.364Z,15.20
2018-07-22T08:51:17.352Z,14.50
2018-07-22T08:52:17.343Z,13.40
2018-07-22T08:53:17.419Z,15.60
2018-07-22T08:54:17.319Z,15.10
2018-07-22T08:55:17.310Z,14.40
2018-07-22T08:56:17.297Z,17.40
2018-07-22T08:57:17.286Z,16.60
2018-07-22T08:58:17.319Z,14.30
2018-07-22T08:59:17.265Z,14.90
2018-07-22T09:00:17.252Z,13.70
2018-07-22T09:01:17.240Z,12.80
2018-07-22T09:02:17.230Z,12.90
2018-07-22T09:03:17.264Z,14.50
2018-07-22T09:04:17.221Z,14.30
2018-07-22T09:05:17.195Z,15.80
2018-07-22T09:06:17.184Z,16.30
2018-07-22T09:07:17.172Z,16.80
2018-07-22T09:08:17.225Z,15.30
2018-07-22T09:09:17.150Z,15.60
2018-07-22T09:10:17.143Z,14.90
2018-07-22T09:11:17.131Z,14.80
2018-07-22T09:12:17.118Z,13.80
2018-07-22T09:13:17.158Z,13.80
2018-07-22T09:14:17.099Z,14.60
2018-07-22T09:15:17.085Z,14.70
2018-07-22T09:16:17.077Z,17.50
2018-07-22T09:17:17.060Z,16.50
2018-07-22T09:18:17.096Z,15.80
2018-07-22T09:19:17.036Z,15.20
2018-07-22T09:20:17.032Z,15.50
2018-07-22T09:21:17.017Z,15.90
2018-07-22T09:22:17.005Z,15.60
2018-07-22T09:23:17.044Z,15.20
2018-07-22T09:24:16.984Z,14.30
2018-07-22T09:25:16.972Z,17.00
2018-07-22T09:26:16.958Z,16.10
2018-07-22T09:27:16.950Z,17.90
2018-07-22T09:28:16.982Z,17.10
2018-07-22T09:29:16.927Z,17.70
2018-07-22T09:30:16.914Z,17.10
2018-07-22T09:31:16.905Z,16.90
2018-07-22T09:32:16.895Z,17.10
2018-07-22T09:33:16.940Z,18.50
2018-07-22T09:34:16.874Z,19.80
2018-07-22T09:35:16.859Z,18.90
2018-07-22T09:36:17.014Z,18.00
2018-07-22T09:37:16.834Z,16.60
2018-07-22T09:38:16.872Z,18.80
2018-07-22T09:39:16.820Z,18.00
2018-07-22T09:40:16.804Z,17.30
2018-07-22T09:41:16.795Z,16.90
2018-07-22T09:42:16.781Z,16.90
2018-07-22T09:43:16.815Z,16.80
2018-07-22T09:44:16.761Z,18.40
2018-07-22T09:45:16.745Z,18.70
2018-07-22T09:46:16.736Z,17.70
2018-07-22T09:47:16.727Z,18.70
2018-07-22T09:48:16.759Z,18.70
2018-07-22T09:49:16.718Z,17.90
2018-07-22T09:50:16.691Z,18.00
2018-07-22T09:51:16.680Z,17.70
2018-07-22T09:52:16.667Z,16.80
2018-07-22T09:53:16.707Z,17.60
2018-07-22T09:54:16.643Z,17.20
2018-07-22T09:55:16.634Z,17.10
2018-07-22T09:56:16.630Z,15.60
2018-07-22T09:57:16.611Z,20.00
2018-07-22T09:58:16.649Z,20.40
2018-07-22T09:59:16.648Z,19.30
2018-07-22T10:00:16.577Z,18.60
2018-07-22T10:01:16.569Z,23.00
2018-07-22T10:02:16.556Z,22.60
2018-07-22T10:03:16.591Z,22.00
2018-07-22T10:04:16.531Z,21.20
2018-07-22T10:05:16.524Z,23.60
2018-07-22T10:06:16.512Z,23.00
2018-07-22T10:07:16.499Z,21.80
2018-07-22T10:08:16.534Z,20.80
2018-07-22T10:09:16.481Z,19.90
2018-07-22T10:10:16.471Z,20.60
2018-07-22T10:11:16.479Z,21.00
2018-07-22T10:12:16.446Z,20.30
2018-07-22T10:13:16.480Z,20.30
2018-07-22T10:14:16.467Z,23.40
2018-07-22T10:15:16.407Z,21.80
2018-07-22T10:16:16.400Z,20.70
2018-07-22T10:17:16.384Z,20.10
2018-07-22T10:18:16.446Z,18.60
2018-07-22T10:19:16.363Z,19.80
2018-07-22T10:20:16.350Z,19.90
2018-07-22T10:21:16.357Z,20.10
2018-07-22T10:22:16.335Z,18.70
2018-07-22T10:23:16.352Z,20.40
2018-07-22T10:24:16.379Z,19.30
2018-07-22T10:25:16.298Z,19.70
2018-07-22T10:26:16.286Z,22.90
2018-07-22T10:27:16.273Z,20.40
2018-07-22T10:28:16.260Z,19.80
2018-07-22T10:29:16.303Z,21.20
2018-07-22T10:30:16.245Z,19.60
2018-07-22T10:31:16.225Z,19.50
2018-07-22T10:32:16.216Z,20.40
2018-07-22T10:33:16.206Z,19.70
2018-07-22T10:34:16.242Z,20.10
2018-07-22T10:35:16.191Z,20.70
2018-07-22T10:36:16.171Z,20.50
2018-07-22T10:37:16.159Z,18.60
2018-07-22T10:38:16.160Z,19.80
2018-07-22T10:39:16.191Z,21.40
2018-07-22T10:40:16.127Z,20.00
2018-07-22T10:41:16.129Z,20.20
2018-07-22T10:42:16.102Z,20.90
2018-07-22T10:43:16.133Z,21.00
2018-07-22T10:44:16.137Z,19.40
2018-07-22T10:45:16.070Z,20.80
2018-07-22T10:46:16.059Z,19.70
2018-07-22T10:47:16.066Z,18.20
2018-07-22T10:48:16.038Z,17.90
2018-07-22T10:49:16.073Z,18.00
2018-07-22T10:50:16.012Z,16.70
2018-07-22T10:51:16.000Z,17.80
2018-07-22T10:52:16.002Z,17.50
2018-07-22T10:53:16.005Z,18.20
2018-07-22T10:54:16.011Z,17.50
2018-07-22T10:55:15.954Z,17.30
2018-07-22T10:56:15.944Z,17.70
2018-07-22T10:57:15.936Z,18.10
2018-07-22T10:58:15.927Z,17.50
2018-07-22T10:59:15.957Z,16.40
2018-07-22T11:00:15.900Z,17.60
2018-07-22T11:01:15.892Z,17.70
2018-07-22T11:02:15.923Z,17.10
2018-07-22T11:03:15.904Z,16.70
2018-07-22T11:04:15.906Z,16.70
2018-07-22T11:05:15.848Z,16.60
2018-07-22T11:06:15.835Z,17.30
2018-07-22T11:07:15.827Z,17.10
2018-07-22T11:08:15.808Z,16.00
2018-07-22T11:09:15.847Z,15.90
2018-07-22T11:10:15.788Z,17.20
2018-07-22T11:11:15.774Z,17.10
2018-07-22T11:12:15.765Z,16.30
2018-07-22T11:13:15.752Z,16.80
2018-07-22T11:14:15.870Z,17.20
2018-07-22T11:15:15.733Z,17.10
2018-07-22T11:16:15.721Z,18.30
2018-07-22T11:17:15.708Z,16.20
2018-07-22T11:18:15.698Z,18.60
2018-07-22T11:19:15.734Z,20.00
2018-07-22T11:20:15.674Z,20.00
2018-07-22T11:21:15.720Z,20.30
2018-07-22T11:22:15.652Z,20.10
2018-07-22T11:23:15.643Z,19.50
2018-07-22T11:24:15.677Z,19.20
2018-07-22T11:25:15.622Z,18.60
2018-07-22T11:26:15.610Z,17.80
2018-07-22T11:27:15.598Z,19.50
2018-07-22T11:28:15.592Z,17.90
2018-07-22T11:29:15.620Z,20.30
2018-07-22T11:30:15.575Z,18.90
2018-07-22T11:31:15.556Z,17.60
2018-07-22T11:32:15.545Z,19.10
2018-07-22T11:33:15.530Z,19.40
2018-07-22T11:34:15.568Z,17.50
2018-07-22T11:35:15.508Z,17.40
2018-07-22T11:36:15.503Z,17.00
2018-07-22T11:37:15.486Z,17.80
2018-07-22T11:38:15.477Z,17.80
2018-07-22T11:39:15.509Z,18.40
2018-07-22T11:40:15.451Z,17.80
2018-07-22T11:41:15.444Z,18.90
2018-07-22T11:42:15.435Z,18.80
2018-07-22T11:43:15.421Z,18.10
2018-07-22T11:44:15.462Z,18.00
2018-07-22T11:45:15.401Z,19.70
2018-07-22T11:46:15.385Z,19.10
2018-07-22T11:47:15.373Z,18.70
2018-07-22T11:48:15.376Z,18.40
2018-07-22T11:49:15.396Z,17.30
2018-07-22T11:50:15.345Z,17.60
2018-07-22T11:51:15.344Z,16.70
2018-07-22T11:52:15.319Z,18.00
2018-07-22T11:53:15.311Z,16.50
2018-07-22T11:54:15.370Z,15.80
2018-07-22T11:55:15.285Z,17.10
2018-07-22T11:56:15.275Z,17.40
2018-07-22T11:57:15.266Z,16.40
2018-07-22T11:58:15.254Z,15.70
2018-07-22T11:59:15.285Z,16.50
2018-07-22T12:00:15.286Z,16.00
2018-07-22T12:01:15.221Z,15.40
2018-07-22T12:02:15.211Z,17.50
2018-07-22T12:03:15.199Z,16.70
2018-07-22T12:04:15.233Z,15.70
2018-07-22T12:05:15.176Z,16.20
2018-07-22T12:06:15.166Z,15.70
2018-07-22T12:07:15.158Z,16.10
2018-07-22T12:08:15.142Z,15.60
2018-07-22T12:09:15.178Z,15.40
2018-07-22T12:10:15.120Z,15.70
2018-07-22T12:11:15.106Z,15.40
2018-07-22T12:12:15.228Z,15.30
2018-07-22T12:13:15.107Z,14.90
2018-07-22T12:14:15.124Z,14.90
2018-07-22T12:15:15.066Z,14.50
2018-07-22T12:16:15.053Z,15.70
2018-07-22T12:17:15.048Z,15.30
2018-07-22T12:18:15.036Z,15.00
2018-07-22T12:19:15.065Z,14.50
2018-07-22T12:20:15.012Z,15.00
2018-07-22T12:21:15.064Z,14.90
2018-07-22T12:22:14.987Z,14.20
2018-07-22T12:23:14.981Z,14.60
2018-07-22T12:24:15.008Z,14.90
2018-07-22T12:25:14.951Z,14.20
2018-07-22T12:26:14.941Z,15.20
2018-07-22T12:27:14.930Z,14.70
2018-07-22T12:28:15.053Z,14.10
2018-07-22T12:29:14.991Z,14.70
2018-07-22T12:30:14.901Z,14.30
2018-07-22T12:31:14.890Z,14.70
2018-07-22T12:32:14.875Z,13.80
2018-07-22T12:33:14.862Z,14.50
2018-07-22T12:34:14.954Z,14.30
2018-07-22T12:35:14.841Z,13.90
2018-07-22T12:36:14.838Z,14.00
2018-07-22T12:37:14.818Z,14.20
2018-07-22T12:38:14.812Z,13.80
2018-07-22T12:39:14.842Z,14.70
2018-07-22T12:40:14.791Z,14.00
2018-07-22T12:41:14.774Z,14.00
2018-07-22T12:42:14.765Z,14.30
2018-07-22T12:43:14.752Z,14.70
2018-07-22T12:44:14.753Z,14.00
2018-07-22T12:45:14.775Z,14.30
2018-07-22T12:46:14.723Z,13.80
2018-07-22T12:47:14.710Z,13.40
2018-07-22T12:48:14.697Z,14.60
2018-07-22T12:49:14.692Z,13.60
2018-07-22T12:50:14.750Z,14.00
2018-07-22T12:51:14.664Z,14.60
2018-07-22T12:52:14.653Z,14.50
2018-07-22T12:53:14.644Z,14.60
2018-07-22T12:54:14.636Z,14.30
2018-07-22T12:55:14.664Z,14.20
2018-07-22T12:56:14.623Z,14.40
2018-07-22T12:57:14.596Z,14.20
2018-07-22T12:58:14.594Z,14.10
2018-07-22T12:59:14.574Z,14.00
2018-07-22T13:00:14.613Z,14.20
2018-07-22T13:01:14.556Z,14.10
2018-07-22T13:02:14.545Z,13.90
2018-07-22T13:03:14.551Z,14.10
2018-07-22T13:04:14.519Z,14.70
2018-07-22T13:05:14.554Z,13.30
2018-07-22T13:06:14.499Z,13.80
2018-07-22T13:07:14.504Z,13.30
2018-07-22T13:08:14.476Z,13.80
2018-07-22T13:09:14.475Z,13.50
2018-07-22T13:10:14.500Z,14.10
2018-07-22T13:11:14.445Z,14.70
2018-07-22T13:12:14.435Z,14.70
2018-07-22T13:13:14.504Z,14.10
2018-07-22T13:14:14.410Z,13.40
2018-07-22T13:15:14.444Z,14.00
2018-07-22T13:16:14.391Z,14.50
2018-07-22T13:17:14.380Z,14.20
2018-07-22T13:18:14.365Z,14.10
2018-07-22T13:19:14.356Z,13.90
2018-07-22T13:20:14.393Z,13.60
2018-07-22T13:21:14.331Z,13.90
2018-07-22T13:22:14.323Z,14.20
2018-07-22T13:23:14.318Z,13.80
2018-07-22T13:24:14.300Z,13.60
2018-07-22T13:25:14.346Z,13.20
2018-07-22T13:26:14.275Z,13.60
2018-07-22T13:27:14.274Z,13.30
2018-07-22T13:28:14.253Z,13.30
2018-07-22T13:29:14.247Z,13.30
2018-07-22T13:30:14.280Z,14.40
2018-07-22T13:31:14.222Z,13.70
2018-07-22T13:32:14.211Z,13.90
2018-07-22T13:33:14.218Z,13.70
2018-07-22T13:34:14.185Z,13.10
2018-07-22T13:35:14.220Z,13.60
2018-07-22T13:36:14.162Z,13.00
2018-07-22T13:37:14.159Z,13.60
2018-07-22T13:38:14.210Z,13.20
2018-07-22T13:39:14.131Z,13.90
2018-07-22T13:40:14.166Z,13.30
2018-07-22T13:41:14.112Z,13.70
2018-07-22T13:42:14.102Z,13.40
2018-07-22T13:43:14.084Z,13.10
2018-07-22T13:44:14.073Z,13.50
2018-07-22T13:45:14.135Z,13.20
2018-07-22T13:46:14.059Z,13.30
2018-07-22T13:47:14.040Z,13.30
2018-07-22T13:48:14.043Z,13.30
2018-07-22T13:49:14.027Z,13.70
2018-07-22T13:50:14.053Z,13.10
2018-07-22T13:51:13.994Z,12.90
2018-07-22T13:52:13.987Z,13.30
2018-07-22T13:53:13.971Z,13.50
2018-07-22T13:54:13.963Z,13.10
2018-07-22T13:55:13.994Z,13.10
2018-07-22T13:56:13.939Z,13.50
2018-07-22T13:57:13.929Z,13.10
2018-07-22T13:58:13.916Z,13.40
2018-07-22T13:59:13.905Z,13.40
2018-07-22T14:00:13.980Z,13.50
2018-07-22T14:01:13.893Z,13.40
2018-07-22T14:02:13.874Z,13.30
2018-07-22T14:03:13.862Z,13.10
2018-07-22T14:04:13.848Z,13.40
2018-07-22T14:05:13.893Z,13.70
2018-07-22T14:06:13.832Z,13.70
2018-07-22T14:07:13.825Z,13.50
2018-07-22T14:08:13.809Z,13.40
2018-07-22T14:09:13.794Z,13.10
2018-07-22T14:10:13.827Z,13.30
2018-07-22T14:11:13.774Z,13.40
2018-07-22T14:12:13.759Z,13.40
2018-07-22T14:13:13.751Z,13.10
2018-07-22T14:14:13.737Z,13.10
2018-07-22T14:15:13.773Z,13.60
2018-07-22T14:16:13.715Z,13.60
2018-07-22T14:17:13.706Z,13.00
2018-07-22T14:18:13.695Z,13.10
2018-07-22T14:19:13.680Z,13.30
2018-07-22T14:20:13.717Z,12.90
2018-07-22T14:21:13.658Z,12.70
2018-07-22T14:22:13.648Z,13.40
2018-07-22T14:23:13.642Z,12.70
2018-07-22T14:24:13.625Z,12.80
2018-07-22T14:25:13.663Z,13.30
2018-07-22T14:26:13.611Z,12.80
2018-07-22T14:27:13.592Z,13.30
2018-07-22T14:28:13.629Z,12.60
2018-07-22T14:29:13.600Z,13.40
2018-07-22T14:30:13.610Z,13.20
2018-07-22T14:31:13.549Z,13.10
2018-07-22T14:32:13.550Z,12.90
2018-07-22T14:33:13.525Z,13.10
2018-07-22T14:34:13.514Z,12.60
2018-07-22T14:35:13.624Z,13.50
2018-07-22T14:36:13.495Z,13.10
2018-07-22T14:37:13.481Z,13.10
2018-07-22T14:38:13.469Z,13.20
2018-07-22T14:39:13.459Z,12.80
2018-07-22T14:40:13.492Z,13.30
2018-07-22T14:41:13.437Z,12.90
2018-07-22T14:42:13.430Z,12.80
2018-07-22T14:43:13.413Z,12.90
2018-07-22T14:44:13.404Z,13.20
2018-07-22T14:45:13.437Z,13.00
2018-07-22T14:46:13.392Z,12.10
2018-07-22T14:47:13.484Z,13.20
2018-07-22T14:48:13.358Z,13.00
2018-07-22T14:49:13.346Z,12.50
2018-07-22T14:50:13.380Z,12.80
2018-07-22T14:51:13.326Z,13.20
2018-07-22T14:52:13.326Z,12.70
2018-07-22T14:53:13.303Z,13.10
2018-07-22T14:54:13.294Z,13.00
2018-07-22T14:55:13.327Z,13.20
2018-07-22T14:56:13.273Z,12.90
2018-07-22T14:57:13.261Z,13.30
2018-07-22T14:58:13.246Z,13.20
2018-07-22T14:59:13.235Z,12.50
2018-07-22T15:00:13.276Z,12.90
2018-07-22T15:01:13.213Z,13.00
2018-07-22T15:02:13.202Z,11.90
2018-07-22T15:03:13.197Z,12.60
2018-07-22T15:04:13.179Z,12.70
2018-07-22T15:05:13.171Z,12.60
2018-07-22T15:06:13.208Z,12.90
2018-07-22T15:07:13.147Z,12.20
2018-07-22T15:08:13.138Z,12.80
2018-07-22T15:09:13.127Z,12.60
2018-07-22T15:10:13.114Z,11.80
2018-07-22T15:11:13.151Z,12.50
2018-07-22T15:12:13.093Z,12.30
2018-07-22T15:13:13.082Z,12.60
2018-07-22T15:14:13.070Z,12.60
2018-07-22T15:15:13.070Z,12.40
2018-07-22T15:16:13.092Z,11.90
2018-07-22T15:17:13.036Z,12.30
2018-07-22T15:18:13.025Z,12.80
2018-07-22T15:19:13.017Z,12.60
2018-07-22T15:20:13.005Z,12.20
2018-07-22T15:21:13.036Z,12.50
2018-07-22T15:22:12.982Z,12.40
2018-07-22T15:23:12.971Z,12.40
2018-07-22T15:24:12.959Z,12.20
2018-07-22T15:25:12.949Z,12.40
2018-07-22T15:26:12.986Z,12.50
2018-07-22T15:27:12.925Z,12.20
2018-07-22T15:28:12.912Z,12.50
2018-07-22T15:29:12.918Z,12.40
2018-07-22T15:30:12.892Z,12.50
2018-07-22T15:31:12.927Z,12.00
2018-07-22T15:32:12.869Z,12.10
2018-07-22T15:33:12.866Z,11.60
2018-07-22T15:34:12.847Z,12.30
2018-07-22T15:35:12.880Z,12.10
2018-07-22T15:36:12.872Z,12.00
2018-07-22T15:37:12.817Z,12.40
2018-07-22T15:38:12.803Z,12.10
2018-07-22T15:39:12.792Z,12.40
2018-07-22T15:40:12.780Z,12.20
2018-07-22T15:41:12.815Z,12.00
2018-07-22T15:42:12.758Z,11.90
2018-07-22T15:43:12.799Z,11.90
2018-07-22T15:44:12.739Z,11.90
2018-07-22T15:45:12.727Z,12.80
2018-07-22T15:46:12.759Z,11.90
2018-07-22T15:47:12.705Z,12.10
2018-07-22T15:48:12.691Z,12.00
2018-07-22T15:49:12.679Z,12.50
2018-07-22T15:50:12.685Z,12.20
2018-07-22T15:51:12.705Z,12.50
2018-07-22T15:52:12.648Z,12.20
2018-07-22T15:53:12.647Z,12.30
2018-07-22T15:54:12.624Z,12.00
2018-07-22T15:55:12.755Z,12.10
2018-07-22T15:56:12.646Z,11.80
2018-07-22T15:57:12.591Z,11.80
2018-07-22T15:58:12.591Z,11.90
2018-07-22T15:59:12.572Z,12.30
2018-07-22T16:00:12.556Z,12.30
2018-07-22T16:01:12.637Z,12.20
2018-07-22T16:02:12.535Z,12.00
2018-07-22T16:03:12.525Z,11.60
2018-07-22T16:04:12.515Z,11.60
2018-07-22T16:05:12.502Z,11.80
2018-07-22T16:06:12.537Z,12.10
2018-07-22T16:07:12.478Z,12.00
2018-07-22T16:08:12.468Z,11.70
2018-07-22T16:09:12.457Z,12.20
2018-07-22T16:10:12.444Z,11.70
2018-07-22T16:11:12.479Z,11.60
2018-07-22T16:12:12.434Z,11.50
2018-07-22T16:13:12.410Z,12.10
2018-07-22T16:14:12.409Z,12.10
2018-07-22T16:15:12.398Z,11.50
2018-07-22T16:16:12.422Z,11.70
2018-07-22T16:17:12.375Z,11.80
2018-07-22T16:18:12.354Z,11.70
2018-07-22T16:19:12.345Z,11.60
2018-07-22T16:20:12.335Z,11.60
2018-07-22T16:21:12.363Z,11.30
2018-07-22T16:22:12.310Z,11.90
2018-07-22T16:23:12.320Z,11.10
2018-07-22T16:24:12.288Z,12.00
2018-07-22T16:25:12.322Z,11.70
2018-07-22T16:26:12.315Z,11.40
2018-07-22T16:27:12.254Z,11.30
2018-07-22T16:28:12.250Z,11.10
2018-07-22T16:29:12.239Z,11.60
2018-07-22T16:30:12.218Z,11.10
2018-07-22T16:31:12.258Z,11.30
2018-07-22T16:32:12.197Z,12.00
2018-07-22T16:33:12.183Z,11.50
2018-07-22T16:34:12.174Z,11.90
2018-07-22T16:35:12.166Z,11.70
2018-07-22T16:36:12.194Z,11.00
2018-07-22T16:37:12.140Z,11.10
2018-07-22T16:38:12.127Z,11.30
2018-07-22T16:39:12.116Z,11.40
2018-07-22T16:40:12.107Z,11.50
2018-07-22T16:41:12.139Z,11.30
2018-07-22T16:42:12.127Z,12.00
2018-07-22T16:43:12.071Z,11.20
2018-07-22T16:44:12.063Z,11.40
2018-07-22T16:45:12.051Z,11.30
2018-07-22T16:46:12.092Z,11.60
2018-07-22T16:47:12.028Z,11.60
2018-07-22T16:48:12.018Z,11.70
2018-07-22T16:49:12.006Z,11.60
2018-07-22T16:50:12.000Z,12.00
2018-07-22T16:51:12.040Z,11.10
2018-07-22T16:52:11.975Z,10.80
2018-07-22T16:53:11.962Z,11.50
2018-07-22T16:54:11.956Z,11.50
2018-07-22T16:55:11.940Z,11.40
2018-07-22T16:56:11.974Z,10.70
2018-07-22T16:57:11.916Z,11.20
2018-07-22T16:58:11.908Z,11.20
2018-07-22T16:59:11.894Z,10.70
2018-07-22T17:00:11.892Z,11.80
2018-07-22T17:01:11.940Z,11.10
2018-07-22T17:02:11.860Z,11.40
2018-07-22T17:03:11.856Z,11.10
2018-07-22T17:04:11.837Z,10.90
2018-07-22T17:05:11.829Z,11.40
2018-07-22T17:06:11.860Z,11.10
2018-07-22T17:07:11.826Z,11.30
2018-07-22T17:08:11.796Z,11.10
2018-07-22T17:09:11.783Z,11.40
2018-07-22T17:10:11.771Z,11.40
2018-07-22T17:11:11.813Z,11.20
2018-07-22T17:12:11.749Z,11.20
2018-07-22T17:13:11.741Z,10.40
2018-07-22T17:14:11.736Z,11.30
2018-07-22T17:15:11.716Z,10.90
2018-07-22T17:16:11.702Z,11.20
2018-07-22T17:17:11.739Z,11.40
2018-07-22T17:18:11.679Z,10.70
2018-07-22T17:19:11.669Z,10.50
2018-07-22T17:20:11.661Z,10.90
2018-07-22T17:21:11.650Z,11.20
2018-07-22T17:22:11.689Z,11.00
2018-07-22T17:23:11.624Z,10.60
2018-07-22T17:24:11.613Z,10.90
2018-07-22T17:25:11.606Z,11.30
2018-07-22T17:26:11.593Z,10.80
2018-07-22T17:27:11.627Z,11.00
2018-07-22T17:28:11.567Z,11.10
2018-07-22T17:29:11.555Z,11.30
2018-07-22T17:30:11.547Z,10.80
2018-07-22T17:31:11.577Z,11.40
2018-07-22T17:32:11.576Z,10.70
2018-07-22T17:33:11.511Z,10.70
2018-07-22T17:34:11.502Z,11.10
2018-07-22T17:35:11.487Z,10.80
2018-07-22T17:36:11.484Z,10.80
2018-07-22T17:37:11.513Z,10.80
2018-07-22T17:38:11.455Z,10.90
2018-07-22T17:39:11.445Z,10.80
2018-07-22T17:40:11.433Z,10.90
2018-07-22T17:41:11.434Z,10.60
2018-07-22T17:42:11.459Z,10.90
2018-07-22T17:43:11.399Z,10.90
2018-07-22T17:44:11.391Z,10.60
2018-07-22T17:45:11.378Z,10.60
2018-07-22T17:46:11.367Z,11.00
2018-07-22T17:47:11.402Z,10.40
2018-07-22T17:48:11.350Z,10.70
2018-07-22T17:49:11.335Z,10.70
2018-07-22T17:50:11.326Z,10.50
2018-07-22T17:51:11.314Z,10.50
2018-07-22T17:52:11.348Z,10.90
2018-07-22T17:53:11.295Z,10.80
2018-07-22T17:54:11.331Z,10.70
2018-07-22T17:55:11.273Z,10.70
2018-07-22T17:56:11.260Z,10.50
2018-07-22T17:57:11.292Z,10.30
2018-07-22T17:58:11.238Z,10.40
2018-07-22T17:59:11.287Z,10.30
2018-07-22T18:00:11.220Z,10.60
2018-07-22T18:01:11.206Z,10.30
2018-07-22T18:02:11.242Z,10.60
2018-07-22T18:03:11.179Z,10.40
2018-07-22T18:04:11.172Z,10.30
2018-07-22T18:05:11.162Z,10.90
2018-07-22T18:06:11.147Z,10.30
2018-07-22T18:07:11.184Z,10.60
2018-07-22T18:08:11.127Z,10.10
2018-07-22T18:09:11.111Z,10.30
2018-07-22T18:10:11.103Z,10.30
2018-07-22T18:11:11.091Z,10.30
2018-07-22T18:12:11.185Z,10.30
2018-07-22T18:13:11.082Z,10.30
2018-07-22T18:14:11.068Z,9.90
2018-07-22T18:15:11.046Z,10.50
2018-07-22T18:16:11.043Z,10.00
2018-07-22T18:17:11.070Z,10.50
2018-07-22T18:18:11.012Z,10.40
2018-07-22T18:19:11.001Z,10.50
2018-07-22T18:20:10.990Z,10.20
2018-07-22T18:21:10.980Z,9.90
2018-07-22T18:22:11.014Z,10.40
2018-07-22T18:23:10.957Z,10.30
2018-07-22T18:24:10.952Z,10.20
2018-07-22T18:25:10.934Z,10.20
2018-07-22T18:26:10.923Z,10.50
2018-07-22T18:27:10.994Z,9.60
2018-07-22T18:28:10.912Z,10.40
2018-07-22T18:29:10.908Z,10.00
2018-07-22T18:30:10.879Z,9.80
2018-07-22T18:31:10.866Z,10.00
2018-07-22T18:32:10.907Z,9.80
2018-07-22T18:33:10.845Z,10.40
2018-07-22T18:34:10.833Z,12.10
2018-07-22T18:35:10.824Z,13.00
2018-07-22T18:36:10.811Z,12.60
2018-07-22T18:37:11.095Z,12.00
2018-07-22T18:38:10.789Z,11.70
2018-07-22T18:39:10.793Z,11.70
2018-07-22T18:40:10.769Z,12.60
2018-07-22T18:41:10.756Z,12.80
2018-07-22T18:42:10.805Z,13.30
2018-07-22T18:43:10.731Z,13.40
2018-07-22T18:44:10.722Z,14.00
2018-07-22T18:45:10.717Z,14.30
2018-07-22T18:46:10.697Z,14.00
2018-07-22T18:47:10.734Z,13.30
2018-07-22T18:48:10.721Z,13.40
2018-07-22T18:49:10.665Z,13.10
2018-07-22T18:50:10.658Z,13.50
2018-07-22T18:51:10.661Z,13.00
2018-07-22T18:52:10.689Z,13.20
2018-07-22T18:53:10.619Z,14.90